Pope Air Force Base Fayetteville US
ICAO: KPOB
IATA: POB
Category: Medium
Scheduled Services: No

Elevation: 217 ft
TransAlt. 18000 ft.

Airport Communications:
FAYETTEVILLE APP/DEP:125.175
COMD POST:134.1
ATIS:132.3
CLNC DEL:27.58
GND:124.55
PMSV METRO:34.46
PTD:37.22
TWR:135.025

KPOB Zoom In..

Runways:

(A) RW 05 length 7501 ft width 150 ft
---- / hdg 48

(B) RW 23 length 7501 ft width 150 ft
ILS 110.90 / hdg 228

Location; KPOB
Day. 23 / Time. 07.52 Zulu
* Altimeter: 29.79
* Temperature: 21° c. 69.8°f.
* Wind from: 080° Speed 07 kn.
Dewpoint: 20° c.
Visibility: 10 Statute Miles.
Clouds: Scattered 400 ft.
Clouds: Overcast 1900 ft.

KPOB 230752Z AUTO 08007KT 10SM SCT004 OVC019 21/20 A2979 RMK AO2 RAE07DZB33E42 CIG 004 RWY05 SLP089 $


Wind From 080°
Speed 07 kn.

 
 
jpsmedia.com for Web Design worldairports.se 2018   terms of use